createdAt,value
2019-04-30T00:02:15.885Z,7.37
2019-04-30T00:04:47.748Z,7.42
2019-04-30T00:07:19.083Z,7.49
2019-04-30T00:09:49.231Z,7.41
2019-04-30T00:12:19.041Z,7.35
2019-04-30T00:14:48.200Z,7.40
2019-04-30T00:17:19.671Z,7.48
2019-04-30T00:19:50.471Z,7.48
2019-04-30T00:22:30.979Z,7.54
2019-04-30T00:24:50.220Z,7.53
2019-04-30T00:27:21.044Z,7.52
2019-04-30T00:29:50.372Z,7.45
2019-04-30T00:32:19.488Z,7.52
2019-04-30T00:34:48.639Z,7.38
2019-04-30T00:37:18.820Z,7.29
2019-04-30T00:39:50.848Z,7.31
2019-04-30T00:42:24.256Z,7.34
2019-04-30T00:44:49.968Z,7.40
2019-04-30T00:47:19.129Z,7.41
2019-04-30T00:49:52.047Z,7.36
2019-04-30T00:52:19.231Z,7.40
2019-04-30T00:54:48.345Z,7.37
2019-04-30T00:57:17.530Z,7.32
2019-04-30T00:59:48.046Z,7.27
2019-04-30T01:02:32.245Z,7.33
2019-04-30T01:05:05.244Z,7.35
2019-04-30T01:07:32.870Z,7.41
2019-04-30T01:10:02.080Z,7.41
2019-04-30T01:12:36.362Z,7.38
2019-04-30T01:15:06.552Z,7.36
2019-04-30T01:17:33.588Z,7.37
2019-04-30T01:20:03.051Z,7.40
2019-04-30T01:22:32.850Z,7.44
2019-04-30T01:25:11.715Z,7.43
2019-04-30T01:27:33.279Z,7.41
2019-04-30T01:30:04.075Z,7.41
2019-04-30T01:32:33.352Z,7.43
2019-04-30T01:35:02.505Z,7.46
2019-04-30T01:37:32.893Z,7.33
2019-04-30T01:40:03.035Z,7.26
2019-04-30T01:42:33.384Z,7.27
2019-04-30T01:45:02.553Z,7.24
2019-04-30T01:47:31.712Z,7.26
2019-04-30T01:50:04.719Z,7.29
2019-04-30T01:53:04.832Z,7.29
2019-04-30T01:55:56.122Z,7.22
2019-04-30T01:58:33.588Z,7.26
2019-04-30T02:01:06.635Z,7.28
2019-04-30T02:03:35.814Z,7.18
2019-04-30T02:06:04.951Z,7.20
2019-04-30T02:08:34.254Z,7.21
2019-04-30T02:11:03.427Z,7.31
2019-04-30T02:13:34.590Z,7.25
2019-04-30T02:16:03.560Z,7.19
2019-04-30T02:18:32.705Z,7.21
2019-04-30T02:21:01.836Z,7.22
2019-04-30T02:23:30.991Z,7.24
2019-04-30T02:26:00.404Z,7.17
2019-04-30T02:28:30.644Z,7.26
2019-04-30T02:31:00.576Z,7.30
2019-04-30T02:33:31.417Z,7.24
2019-04-30T02:36:11.068Z,7.20
2019-04-30T02:38:43.685Z,7.23
2019-04-30T02:41:13.339Z,7.24
2019-04-30T02:43:43.187Z,7.29
2019-04-30T02:46:14.976Z,7.36
2019-04-30T02:48:46.251Z,7.27
2019-04-30T02:51:22.546Z,7.23
2019-04-30T02:54:13.269Z,7.27
2019-04-30T02:56:44.391Z,7.28
2019-04-30T02:59:13.581Z,7.29
2019-04-30T03:01:42.885Z,7.28
2019-04-30T03:04:12.026Z,7.27
2019-04-30T03:06:41.140Z,7.22
2019-04-30T03:09:10.990Z,7.26
2019-04-30T03:11:40.900Z,7.24
2019-04-30T03:14:10.906Z,7.18
2019-04-30T03:17:00.370Z,7.25
2019-04-30T03:20:03.436Z,7.27
2019-04-30T03:22:31.728Z,7.34
2019-04-30T03:25:00.949Z,7.40
2019-04-30T03:27:30.295Z,7.44
2019-04-30T03:30:00.205Z,7.45
2019-04-30T03:32:35.748Z,7.37
2019-04-30T03:35:03.232Z,7.39
2019-04-30T03:37:31.247Z,7.20
2019-04-30T03:40:00.729Z,7.19
2019-04-30T03:42:29.969Z,7.22
2019-04-30T03:44:59.341Z,7.26
2019-04-30T03:47:30.088Z,7.27
2019-04-30T03:50:00.005Z,7.25
2019-04-30T03:52:29.396Z,7.32
2019-04-30T03:54:59.625Z,7.28
2019-04-30T03:57:30.284Z,7.26
2019-04-30T03:59:59.676Z,7.31
2019-04-30T04:02:53.654Z,7.31
2019-04-30T04:05:41.824Z,7.35
2019-04-30T04:08:23.238Z,7.35
2019-04-30T04:10:56.700Z,7.35
2019-04-30T04:13:25.878Z,7.33
2019-04-30T04:15:55.078Z,7.35
2019-04-30T04:18:24.215Z,7.25
2019-04-30T04:21:07.685Z,7.26
2019-04-30T04:23:24.271Z,7.31
2019-04-30T04:25:53.512Z,7.26
2019-04-30T04:28:22.625Z,7.21
2019-04-30T04:30:51.763Z,7.25
2019-04-30T04:33:20.893Z,7.18
2019-04-30T04:35:50.193Z,7.15
2019-04-30T04:38:20.319Z,7.14
2019-04-30T04:40:50.397Z,7.15
2019-04-30T04:43:20.317Z,7.17
2019-04-30T04:45:50.068Z,7.28
2019-04-30T04:48:23.060Z,7.24
2019-04-30T04:50:50.394Z,7.26
2019-04-30T04:53:19.787Z,7.33
2019-04-30T04:55:49.990Z,7.36
2019-04-30T04:58:21.490Z,7.29
2019-04-30T05:00:50.265Z,7.27
2019-04-30T05:03:32.327Z,7.32
2019-04-30T05:06:02.937Z,7.32
2019-04-30T05:08:32.110Z,7.36
2019-04-30T05:11:01.317Z,7.40
2019-04-30T05:13:30.424Z,7.42
2019-04-30T05:15:59.583Z,7.39
2019-04-30T05:18:29.157Z,7.41
2019-04-30T05:20:58.998Z,7.42
2019-04-30T05:23:29.833Z,7.42
2019-04-30T05:25:59.128Z,7.44
2019-04-30T05:28:30.163Z,7.41
2019-04-30T05:30:59.445Z,7.46
2019-04-30T05:33:28.746Z,7.39
2019-04-30T05:35:59.398Z,7.42
2019-04-30T05:38:31.164Z,7.43
2019-04-30T05:40:59.735Z,7.47
2019-04-30T05:43:29.092Z,7.43
2019-04-30T05:45:58.703Z,7.50
2019-04-30T05:48:28.621Z,7.47
2019-04-30T05:50:59.148Z,7.55
2019-04-30T05:53:28.803Z,7.56
2019-04-30T05:55:59.321Z,7.60
2019-04-30T05:58:29.952Z,7.56
2019-04-30T06:00:59.830Z,7.60
2019-04-30T06:03:33.073Z,7.57
2019-04-30T06:06:00.074Z,7.55
2019-04-30T06:08:35.818Z,7.49
2019-04-30T06:11:12.470Z,7.50
2019-04-30T06:13:54.566Z,7.48
2019-04-30T06:16:25.424Z,7.46
2019-04-30T06:18:54.547Z,7.46
2019-04-30T06:21:23.847Z,7.46
2019-04-30T06:23:53.000Z,7.50
2019-04-30T06:26:22.677Z,7.53
2019-04-30T06:28:51.843Z,7.54
2019-04-30T06:31:31.907Z,7.51
2019-04-30T06:33:51.932Z,7.47
2019-04-30T06:36:21.462Z,7.54
2019-04-30T06:38:50.618Z,7.57
2019-04-30T06:41:19.905Z,7.53
2019-04-30T06:43:50.006Z,7.59
2019-04-30T06:46:19.182Z,7.64
2019-04-30T06:48:50.994Z,7.62
2019-04-30T06:51:20.210Z,7.52
2019-04-30T06:53:51.256Z,7.61
2019-04-30T06:56:20.209Z,7.60
2019-04-30T06:58:52.396Z,7.58
2019-04-30T07:01:20.253Z,7.58
2019-04-30T07:03:49.389Z,7.64
2019-04-30T07:06:29.155Z,7.60
2019-04-30T07:09:20.342Z,7.67
2019-04-30T07:12:02.967Z,7.71
2019-04-30T07:14:32.226Z,7.64
2019-04-30T07:17:01.405Z,7.60
2019-04-30T07:19:38.209Z,7.57
2019-04-30T07:22:02.928Z,7.55
2019-04-30T07:24:32.062Z,7.65
2019-04-30T07:27:02.872Z,7.68
2019-04-30T07:29:32.200Z,7.74
2019-04-30T07:32:01.390Z,7.67
2019-04-30T07:34:36.599Z,7.72
2019-04-30T07:37:11.831Z,7.73
2019-04-30T07:39:33.542Z,7.76
2019-04-30T07:42:02.764Z,7.77
2019-04-30T07:44:36.522Z,7.79
2019-04-30T07:47:02.758Z,7.79
2019-04-30T07:49:47.033Z,7.83
2019-04-30T07:52:03.500Z,7.69
2019-04-30T07:54:33.025Z,7.66
2019-04-30T07:57:02.185Z,7.66
2019-04-30T07:59:31.360Z,7.60
2019-04-30T08:02:10.232Z,7.65
2019-04-30T08:04:52.505Z,7.63
2019-04-30T08:07:21.779Z,7.73
2019-04-30T08:09:51.037Z,7.75
2019-04-30T08:12:26.123Z,7.71
2019-04-30T08:14:51.053Z,7.76
2019-04-30T08:17:20.196Z,7.83
2019-04-30T08:19:49.442Z,7.87
2019-04-30T08:22:19.598Z,7.89
2019-04-30T08:24:49.238Z,7.91
2019-04-30T08:27:19.668Z,7.90
2019-04-30T08:29:49.880Z,7.98
2019-04-30T08:32:19.306Z,7.96
2019-04-30T08:34:50.086Z,7.98
2019-04-30T08:37:20.196Z,8.03
2019-04-30T08:39:49.825Z,8.02
2019-04-30T08:42:30.841Z,8.04
2019-04-30T08:44:49.953Z,8.05
2019-04-30T08:47:21.294Z,8.08
2019-04-30T08:49:50.558Z,8.12
2019-04-30T08:52:20.457Z,8.21
2019-04-30T08:54:49.770Z,8.18
2019-04-30T08:57:19.307Z,8.23
2019-04-30T08:59:49.493Z,8.29
2019-04-30T09:02:19.757Z,8.35
2019-04-30T09:04:52.426Z,8.28
2019-04-30T09:07:21.548Z,8.32
2019-04-30T09:09:50.700Z,8.38
2019-04-30T09:12:19.845Z,8.34
2019-04-30T09:14:49.270Z,8.30
2019-04-30T09:17:19.861Z,8.40
2019-04-30T09:19:49.195Z,8.43
2019-04-30T09:22:19.549Z,8.40
2019-04-30T09:24:49.690Z,8.37
2019-04-30T09:27:19.537Z,8.45
2019-04-30T09:29:49.278Z,8.43
2019-04-30T09:32:19.352Z,8.39
2019-04-30T09:34:48.989Z,8.45
2019-04-30T09:37:18.690Z,8.51
2019-04-30T09:39:49.443Z,8.49
2019-04-30T09:42:19.571Z,8.53
2019-04-30T09:44:49.372Z,8.64
2019-04-30T09:47:20.055Z,8.67
2019-04-30T09:49:50.342Z,8.67
2019-04-30T09:52:20.065Z,8.79
2019-04-30T09:54:50.468Z,8.90
2019-04-30T09:57:20.048Z,8.88
2019-04-30T09:59:49.238Z,8.98
2019-04-30T10:02:19.127Z,8.97
2019-04-30T10:04:48.916Z,9.08
2019-04-30T10:07:19.501Z,9.11
2019-04-30T10:09:50.805Z,9.14
2019-04-30T10:12:19.754Z,9.16
2019-04-30T10:14:49.454Z,9.28
2019-04-30T10:17:43.885Z,9.35
2019-04-30T10:20:14.224Z,9.48
2019-04-30T10:22:43.366Z,9.53
2019-04-30T10:25:12.817Z,9.74
2019-04-30T10:27:42.018Z,9.69
2019-04-30T10:30:11.669Z,9.74
2019-04-30T10:32:40.787Z,9.74
2019-04-30T10:35:09.927Z,9.75
2019-04-30T10:37:39.119Z,9.82
2019-04-30T10:40:12.284Z,9.92
2019-04-30T10:42:41.436Z,10.03
2019-04-30T10:45:11.190Z,10.15
2019-04-30T10:47:40.412Z,10.05
2019-04-30T10:50:10.147Z,10.12
2019-04-30T10:52:39.467Z,10.21
2019-04-30T10:55:09.413Z,10.43
2019-04-30T10:57:39.657Z,10.69
2019-04-30T11:00:13.438Z,10.88
2019-04-30T11:02:42.696Z,11.05
2019-04-30T11:05:12.358Z,11.18
2019-04-30T11:07:41.472Z,11.26
2019-04-30T11:10:11.062Z,11.19
2019-04-30T11:12:40.204Z,11.29
2019-04-30T11:15:09.688Z,11.31
2019-04-30T11:17:39.645Z,11.55
2019-04-30T11:20:10.317Z,11.69
2019-04-30T11:22:39.935Z,11.74
2019-04-30T11:25:10.195Z,11.52
2019-04-30T11:27:40.767Z,11.50
2019-04-30T11:30:20.386Z,11.45
2019-04-30T11:32:42.917Z,11.45
2019-04-30T11:35:12.743Z,11.52
2019-04-30T11:37:41.911Z,11.50
2019-04-30T11:40:11.660Z,11.53
2019-04-30T11:42:40.917Z,11.37
2019-04-30T11:45:10.855Z,11.42
2019-04-30T11:47:40.152Z,11.54
2019-04-30T11:50:12.341Z,11.55
2019-04-30T11:52:41.724Z,11.36
2019-04-30T11:55:11.482Z,11.37
2019-04-30T11:57:40.785Z,11.47
2019-04-30T12:00:15.154Z,11.36
2019-04-30T12:02:46.909Z,11.41
2019-04-30T12:05:20.561Z,11.47
2019-04-30T12:08:05.740Z,11.48
2019-04-30T12:10:56.965Z,11.57
2019-04-30T12:13:27.392Z,11.89
2019-04-30T12:15:58.930Z,12.26
2019-04-30T12:18:27.857Z,12.39
2019-04-30T12:20:57.123Z,12.56
2019-04-30T12:23:26.329Z,12.70
2019-04-30T12:25:55.497Z,12.72
2019-04-30T12:28:27.233Z,12.80
2019-04-30T12:30:55.516Z,12.77
2019-04-30T12:33:24.815Z,12.49
2019-04-30T12:35:53.953Z,12.28
2019-04-30T12:38:23.135Z,12.37
2019-04-30T12:40:52.330Z,12.50
2019-04-30T12:43:21.537Z,12.57
2019-04-30T12:46:02.285Z,12.50
2019-04-30T12:48:44.570Z,12.41
2019-04-30T12:51:45.062Z,12.30
2019-04-30T12:54:20.030Z,12.27
2019-04-30T12:57:10.889Z,12.13
2019-04-30T12:59:39.122Z,12.22
2019-04-30T13:02:09.106Z,12.29
2019-04-30T13:04:39.368Z,12.42
2019-04-30T13:07:10.481Z,12.68
2019-04-30T13:09:40.622Z,12.80
2019-04-30T13:12:11.138Z,12.85
2019-04-30T13:14:51.481Z,13.06
2019-04-30T13:17:11.511Z,13.16
2019-04-30T13:19:40.644Z,13.22
2019-04-30T13:22:11.373Z,13.43
2019-04-30T13:24:40.710Z,13.70
2019-04-30T13:27:14.365Z,14.07
2019-04-30T13:29:56.101Z,14.07
2019-04-30T13:32:30.172Z,14.04
2019-04-30T13:35:00.992Z,13.98
2019-04-30T13:37:45.301Z,13.77
2019-04-30T13:40:32.372Z,13.36
2019-04-30T13:43:02.018Z,13.15
2019-04-30T13:45:31.210Z,12.97
2019-04-30T13:48:00.442Z,12.98
2019-04-30T13:50:29.602Z,13.23
2019-04-30T13:52:58.924Z,13.61
2019-04-30T13:55:30.538Z,14.00
2019-04-30T13:57:59.060Z,14.18
2019-04-30T14:00:29.760Z,14.09
2019-04-30T14:03:09.739Z,13.38
2019-04-30T14:05:39.032Z,13.47
2019-04-30T14:08:33.524Z,13.40
2019-04-30T14:11:03.783Z,13.18
2019-04-30T14:13:32.906Z,13.13
2019-04-30T14:16:02.055Z,13.43
2019-04-30T14:18:34.029Z,13.93
2019-04-30T14:21:02.221Z,14.12
2019-04-30T14:23:31.379Z,14.17
2019-04-30T14:26:01.174Z,14.28
2019-04-30T14:28:30.402Z,14.37
2019-04-30T14:30:59.611Z,14.18
2019-04-30T14:33:29.404Z,13.58
2019-04-30T14:36:00.760Z,13.48
2019-04-30T14:38:29.683Z,13.38
2019-04-30T14:41:00.678Z,13.16
2019-04-30T14:43:56.161Z,13.01
2019-04-30T14:46:45.062Z,12.92
2019-04-30T14:49:36.728Z,12.79
2019-04-30T14:52:06.510Z,12.87
2019-04-30T14:54:50.246Z,12.86
2019-04-30T14:57:34.770Z,12.92
2019-04-30T15:00:20.864Z,12.85
2019-04-30T15:02:58.572Z,12.87
2019-04-30T15:05:39.186Z,12.92
2019-04-30T15:08:01.475Z,12.98
2019-04-30T15:10:30.745Z,13.00
2019-04-30T15:13:00.220Z,13.04
2019-04-30T15:15:33.697Z,13.00
2019-04-30T15:18:02.902Z,12.84
2019-04-30T15:20:32.082Z,12.96
2019-04-30T15:23:21.885Z,12.93
2019-04-30T15:25:51.221Z,12.92
2019-04-30T15:28:20.353Z,12.91
2019-04-30T15:30:49.561Z,13.05
2019-04-30T15:33:25.665Z,13.08
2019-04-30T15:35:54.824Z,13.13
2019-04-30T15:38:42.967Z,13.05
2019-04-30T15:41:12.095Z,13.16
2019-04-30T15:43:41.257Z,13.28
2019-04-30T15:46:10.458Z,13.38
2019-04-30T15:48:39.600Z,13.39
2019-04-30T15:51:09.055Z,13.38
2019-04-30T15:53:39.312Z,13.31
2019-04-30T15:56:08.603Z,13.51
2019-04-30T15:58:39.539Z,13.41
2019-04-30T16:01:10.213Z,13.27
2019-04-30T16:03:40.975Z,13.38
2019-04-30T16:06:10.490Z,13.31
2019-04-30T16:08:48.127Z,13.32
2019-04-30T16:11:51.337Z,13.35
2019-04-30T16:14:27.019Z,13.35
2019-04-30T16:17:20.665Z,13.39
2019-04-30T16:19:50.179Z,13.45
2019-04-30T16:22:20.871Z,13.42
2019-04-30T16:24:50.144Z,13.49
2019-04-30T16:27:19.602Z,13.37
2019-04-30T16:29:49.781Z,13.24
2019-04-30T16:32:19.888Z,13.19
2019-04-30T16:34:49.837Z,13.17
2019-04-30T16:37:20.245Z,13.02
2019-04-30T16:39:49.497Z,13.12
2019-04-30T16:42:19.147Z,13.12
2019-04-30T16:44:48.293Z,13.00
2019-04-30T16:47:19.703Z,12.96
2019-04-30T16:49:49.357Z,12.98
2019-04-30T16:52:19.072Z,12.93
2019-04-30T16:54:50.085Z,12.85
2019-04-30T16:57:19.292Z,12.89
2019-04-30T16:59:49.975Z,12.89
2019-04-30T17:02:20.293Z,12.89
2019-04-30T17:05:00.434Z,12.84
2019-04-30T17:08:07.023Z,12.81
2019-04-30T17:10:58.025Z,12.82
2019-04-30T17:13:38.960Z,12.68
2019-04-30T17:16:14.275Z,12.70
2019-04-30T17:18:43.445Z,12.75
2019-04-30T17:21:12.701Z,12.69
2019-04-30T17:23:41.928Z,12.74
2019-04-30T17:26:12.364Z,12.74
2019-04-30T17:28:41.547Z,12.65
2019-04-30T17:31:13.401Z,12.63
2019-04-30T17:33:41.725Z,12.52
2019-04-30T17:36:11.224Z,12.45
2019-04-30T17:38:40.424Z,12.47
2019-04-30T17:41:10.789Z,12.51
2019-04-30T17:43:41.653Z,12.48
2019-04-30T17:46:11.180Z,12.48
2019-04-30T17:48:40.429Z,12.45
2019-04-30T17:51:09.697Z,12.45
2019-04-30T17:53:58.743Z,12.49
2019-04-30T17:56:28.224Z,12.50
2019-04-30T17:58:57.421Z,12.52
2019-04-30T18:01:26.772Z,12.52
2019-04-30T18:03:56.039Z,12.53
2019-04-30T18:06:26.393Z,12.46
2019-04-30T18:08:55.639Z,12.50
2019-04-30T18:11:24.998Z,12.51
2019-04-30T18:13:54.389Z,12.55
2019-04-30T18:16:23.645Z,12.57
2019-04-30T18:19:04.509Z,12.52
2019-04-30T18:21:38.578Z,12.43
2019-04-30T18:24:36.316Z,12.47
2019-04-30T18:27:20.918Z,12.40
2019-04-30T18:29:49.327Z,12.31
2019-04-30T18:32:19.845Z,12.24
2019-04-30T18:34:49.182Z,12.10
2019-04-30T18:37:18.902Z,12.06
2019-04-30T18:39:49.677Z,12.05
2019-04-30T18:42:19.407Z,12.00
2019-04-30T18:44:48.659Z,11.89
2019-04-30T18:47:18.905Z,11.87
2019-04-30T18:49:49.537Z,11.86
2019-04-30T18:52:19.050Z,11.87
2019-04-30T18:54:49.539Z,11.80
2019-04-30T18:57:18.839Z,11.82
2019-04-30T18:59:48.105Z,11.85
2019-04-30T19:02:17.774Z,11.80
2019-04-30T19:04:47.056Z,11.82
2019-04-30T19:07:28.246Z,11.84
2019-04-30T19:10:16.422Z,11.85
2019-04-30T19:13:04.301Z,11.83
2019-04-30T19:16:18.130Z,11.72
2019-04-30T19:18:31.787Z,11.76
2019-04-30T19:21:01.162Z,11.72
2019-04-30T19:23:30.608Z,11.68
2019-04-30T19:26:00.107Z,11.69
2019-04-30T19:28:29.680Z,11.63
2019-04-30T19:31:00.985Z,11.63
2019-04-30T19:33:31.154Z,11.60
2019-04-30T19:36:00.705Z,11.52
2019-04-30T19:38:29.986Z,11.52
2019-04-30T19:41:02.709Z,11.51
2019-04-30T19:43:32.011Z,11.52
2019-04-30T19:46:01.259Z,11.47
2019-04-30T19:48:31.326Z,11.45
2019-04-30T19:51:00.570Z,11.48
2019-04-30T19:53:30.392Z,11.39
2019-04-30T19:55:59.763Z,11.34
2019-04-30T19:58:46.382Z,11.31
2019-04-30T20:01:03.105Z,11.31
2019-04-30T20:03:33.687Z,11.23
2019-04-30T20:06:02.961Z,11.27
2019-04-30T20:08:33.238Z,11.20
2019-04-30T20:11:02.460Z,11.23
2019-04-30T20:13:36.998Z,11.26
2019-04-30T20:16:02.684Z,11.23
2019-04-30T20:18:31.884Z,11.22
2019-04-30T20:21:02.792Z,11.07
2019-04-30T20:23:31.953Z,11.09
2019-04-30T20:26:01.208Z,11.08
2019-04-30T20:28:39.136Z,11.12
2019-04-30T20:31:01.401Z,11.14
2019-04-30T20:33:30.678Z,11.10
2019-04-30T20:35:59.875Z,11.14
2019-04-30T20:38:53.853Z,11.17
2019-04-30T20:41:24.085Z,11.06
2019-04-30T20:43:53.347Z,11.11
2019-04-30T20:46:32.053Z,11.09
2019-04-30T20:48:53.501Z,11.12
2019-04-30T20:51:22.766Z,11.05
2019-04-30T20:53:51.921Z,11.04
2019-04-30T20:56:21.156Z,10.98
2019-04-30T20:58:57.766Z,10.99
2019-04-30T21:01:21.339Z,10.98
2019-04-30T21:03:50.585Z,10.96
2019-04-30T21:06:19.875Z,10.94
2019-04-30T21:08:48.944Z,10.87
2019-04-30T21:11:19.306Z,10.93
2019-04-30T21:13:49.141Z,10.80
2019-04-30T21:16:18.517Z,10.80
2019-04-30T21:18:47.788Z,10.84
2019-04-30T21:21:18.859Z,10.87
2019-04-30T21:23:49.158Z,10.88
2019-04-30T21:26:19.609Z,10.81
2019-04-30T21:28:49.421Z,10.81
2019-04-30T21:31:46.546Z,10.71
2019-04-30T21:34:24.557Z,10.74
2019-04-30T21:36:53.897Z,10.66
2019-04-30T21:39:23.025Z,10.67
2019-04-30T21:41:53.437Z,10.64
2019-04-30T21:44:22.646Z,10.69
2019-04-30T21:46:51.807Z,10.66
2019-04-30T21:49:21.173Z,10.64
2019-04-30T21:51:50.339Z,10.66
2019-04-30T21:54:19.626Z,10.72
2019-04-30T21:56:48.859Z,10.63
2019-04-30T21:59:24.490Z,10.56
2019-04-30T22:01:49.008Z,10.62
2019-04-30T22:04:18.213Z,10.62
2019-04-30T22:06:49.435Z,10.58
2019-04-30T22:09:18.535Z,10.55
2019-04-30T22:11:49.390Z,10.61
2019-04-30T22:14:18.637Z,10.59
2019-04-30T22:16:49.417Z,10.54
2019-04-30T22:19:18.540Z,10.54
2019-04-30T22:21:49.603Z,10.61
2019-04-30T22:24:18.787Z,10.56
2019-04-30T22:26:47.965Z,10.59
2019-04-30T22:29:19.019Z,10.60
2019-04-30T22:31:49.471Z,10.59
2019-04-30T22:34:18.915Z,10.59
2019-04-30T22:36:49.025Z,10.63
2019-04-30T22:39:32.748Z,10.52
2019-04-30T22:42:20.271Z,10.59
2019-04-30T22:44:49.537Z,10.57
2019-04-30T22:47:18.705Z,10.50
2019-04-30T22:52:12.383Z,10.43
2019-04-30T22:54:41.517Z,10.38
2019-04-30T22:57:11.006Z,10.30
2019-04-30T22:59:49.708Z,10.27
2019-04-30T23:02:28.032Z,10.16
2019-04-30T23:04:57.251Z,10.21
2019-04-30T23:07:26.427Z,10.15
2019-04-30T23:09:55.625Z,10.09
2019-04-30T23:12:24.759Z,10.15
2019-04-30T23:14:53.899Z,10.12
2019-04-30T23:17:23.025Z,10.16
2019-04-30T23:19:52.138Z,10.18
2019-04-30T23:22:21.269Z,10.17
2019-04-30T23:24:50.469Z,10.14
2019-04-30T23:27:19.664Z,10.08
2019-04-30T23:29:48.854Z,10.09
2019-04-30T23:32:17.971Z,10.09
2019-04-30T23:34:47.132Z,10.02
2019-04-30T23:37:16.297Z,9.95
2019-04-30T23:39:45.544Z,9.93
2019-04-30T23:42:14.633Z,9.94
2019-04-30T23:44:43.790Z,9.93
2019-04-30T23:47:12.962Z,9.89
2019-04-30T23:49:42.100Z,9.92
2019-04-30T23:52:11.257Z,9.90
2019-04-30T23:54:40.369Z,9.90
2019-04-30T23:57:09.492Z,9.93
2019-04-30T23:59:38.674Z,9.90
